Halsey, Nebraska
Current Conditions -  °F | °C
As of 5:55 AM on Thursday 27 Nov 2014 (Local Time) from KTIF Reporting Station
Overcast Overcast  
Wind Chill: -7°   Ceiling: 800
Heat Index: -2°   Visibility: 10mi
Dew Point: -5°   Wind: 8mph
Humidity: 80%   Direction: 180°S
Pressure: 30.28"   Gusts: NA
Location:  41.9°N, 100.27°W
Report Text: KTIF 271155Z AUTO 18007KT 10SM OVC008 M02/M05 A3028 RMK AO2 T10221053 11019 21037
Loading
Personal Weather Stations






























Interactive Weather Map New forecast layout! Learn more

10-Day Weather Forecast

Advertisements
Track Severe Weather on mobile